sensor_id;sensor_type;location;lat;lon;timestamp;pressure;altitude;pressure_sealevel;temperature;humidity
48563;BME280;34981;49.104;11.396;2022-08-21T00:00:45;95712.13;;;16.84;100.00
48563;BME280;34981;49.104;11.396;2022-08-21T00:03:13;95714.34;;;16.82;100.00
48563;BME280;34981;49.104;11.396;2022-08-21T00:05:41;95718.50;;;16.79;100.00
48563;BME280;34981;49.104;11.396;2022-08-21T00:08:09;95715.31;;;16.77;100.00
48563;BME280;34981;49.104;11.396;2022-08-21T00:10:37;95712.91;;;16.76;100.00
48563;BME280;34981;49.104;11.396;2022-08-21T00:13:05;95714.00;;;16.74;100.00
48563;BME280;34981;49.104;11.396;2022-08-21T00:15:33;95709.69;;;16.73;100.00
48563;BME280;34981;49.104;11.396;2022-08-21T00:18:01;95710.84;;;16.72;100.00
48563;BME280;34981;49.104;11.396;2022-08-21T00:20:28;95707.94;;;16.69;100.00
48563;BME280;34981;49.104;11.396;2022-08-21T00:22:56;95707.94;;;16.69;100.00
48563;BME280;34981;49.104;11.396;2022-08-21T00:25:24;95706.31;;;16.68;100.00
48563;BME280;34981;49.104;11.396;2022-08-21T00:27:52;95705.84;;;16.66;100.00
48563;BME280;34981;49.104;11.396;2022-08-21T00:30:20;95705.47;;;16.59;100.00
48563;BME280;34981;49.104;11.396;2022-08-21T00:32:49;95713.09;;;16.48;100.00
48563;BME280;34981;49.104;11.396;2022-08-21T00:35:18;95700.78;;;16.42;100.00
48563;BME280;34981;49.104;11.396;2022-08-21T00:37:45;95703.28;;;16.39;100.00
48563;BME280;34981;49.104;11.396;2022-08-21T00:40:15;95701.53;;;16.34;100.00
48563;BME280;34981;49.104;11.396;2022-08-21T00:42:43;95705.34;;;16.33;100.00
48563;BME280;34981;49.104;11.396;2022-08-21T00:45:20;95708.38;;;16.31;100.00
48563;BME280;34981;49.104;11.396;2022-08-21T00:47:47;95709.19;;;16.32;100.00
48563;BME280;34981;49.104;11.396;2022-08-21T00:50:14;95702.44;;;16.29;100.00
48563;BME280;34981;49.104;11.396;2022-08-21T00:52:49;95699.38;;;16.22;100.00
48563;BME280;34981;49.104;11.396;2022-08-21T00:55:17;95705.09;;;16.12;100.00
48563;BME280;34981;49.104;11.396;2022-08-21T00:57:46;95698.66;;;16.08;100.00
48563;BME280;34981;49.104;11.396;2022-08-21T01:00:17;95692.63;;;16.11;100.00
48563;BME280;34981;49.104;11.396;2022-08-21T01:02:45;95693.94;;;16.14;100.00
48563;BME280;34981;49.104;11.396;2022-08-21T01:05:12;95693.59;;;16.15;100.00
48563;BME280;34981;49.104;11.396;2022-08-21T01:07:40;95704.44;;;16.15;100.00
48563;BME280;34981;49.104;11.396;2022-08-21T01:10:07;95699.16;;;16.10;100.00
48563;BME280;34981;49.104;11.396;2022-08-21T01:12:44;95701.88;;;16.10;100.00
48563;BME280;34981;49.104;11.396;2022-08-21T01:15:11;95700.78;;;16.11;100.00
48563;BME280;34981;49.104;11.396;2022-08-21T01:17:41;95689.44;;;16.09;100.00
48563;BME280;34981;49.104;11.396;2022-08-21T01:20:09;95694.03;;;16.09;100.00
48563;BME280;34981;49.104;11.396;2022-08-21T01:22:37;95695.50;;;16.06;100.00
48563;BME280;34981;49.104;11.396;2022-08-21T01:25:05;95693.69;;;16.02;100.00
48563;BME280;34981;49.104;11.396;2022-08-21T01:27:33;95691.13;;;15.96;100.00
48563;BME280;34981;49.104;11.396;2022-08-21T01:30:11;95692.84;;;15.92;100.00
48563;BME280;34981;49.104;11.396;2022-08-21T01:32:39;95693.16;;;15.91;100.00
48563;BME280;34981;49.104;11.396;2022-08-21T01:35:07;95687.75;;;15.91;100.00
48563;BME280;34981;49.104;11.396;2022-08-21T01:37:34;95682.63;;;15.89;100.00
48563;BME280;34981;49.104;11.396;2022-08-21T01:40:03;95685.63;;;15.88;100.00
48563;BME280;34981;49.104;11.396;2022-08-21T01:42:30;95687.84;;;15.86;100.00
48563;BME280;34981;49.104;11.396;2022-08-21T01:44:57;95688.47;;;15.83;100.00
48563;BME280;34981;49.104;11.396;2022-08-21T01:47:25;95693.41;;;15.81;100.00
48563;BME280;34981;49.104;11.396;2022-08-21T01:49:52;95693.41;;;15.81;100.00
48563;BME280;34981;49.104;11.396;2022-08-21T01:52:19;95688.22;;;15.71;100.00
48563;BME280;34981;49.104;11.396;2022-08-21T01:54:46;95694.44;;;15.71;100.00
48563;BME280;34981;49.104;11.396;2022-08-21T01:57:21;95682.31;;;15.69;100.00
48563;BME280;34981;49.104;11.396;2022-08-21T01:59:52;95685.03;;;15.69;100.00
48563;BME280;34981;49.104;11.396;2022-08-21T02:02:19;95689.97;;;15.67;100.00
48563;BME280;34981;49.104;11.396;2022-08-21T02:04:46;95689.34;;;15.70;100.00
48563;BME280;34981;49.104;11.396;2022-08-21T02:07:13;95674.50;;;15.67;100.00
48563;BME280;34981;49.104;11.396;2022-08-21T02:09:41;95678.00;;;15.68;100.00
48563;BME280;34981;49.104;11.396;2022-08-21T02:12:11;95674.81;;;15.66;100.00
48563;BME280;34981;49.104;11.396;2022-08-21T02:14:39;95673.03;;;15.61;100.00
48563;BME280;34981;49.104;11.396;2022-08-21T02:17:06;95670.81;;;15.63;100.00
48563;BME280;34981;49.104;11.396;2022-08-21T02:19:36;95674.31;;;15.64;100.00
48563;BME280;34981;49.104;11.396;2022-08-21T02:22:08;95678.16;;;15.63;100.00
48563;BME280;34981;49.104;11.396;2022-08-21T02:24:35;95674.94;;;15.61;100.00
48563;BME280;34981;49.104;11.396;2022-08-21T02:27:20;95679.03;;;15.58;100.00
48563;BME280;34981;49.104;11.396;2022-08-21T02:29:52;95680.97;;;15.57;100.00
48563;BME280;34981;49.104;11.396;2022-08-21T02:32:20;95672.81;;;15.57;100.00
48563;BME280;34981;49.104;11.396;2022-08-21T02:34:48;95674.72;;;15.57;100.00
48563;BME280;34981;49.104;11.396;2022-08-21T02:37:15;95668.50;;;15.56;100.00
48563;BME280;34981;49.104;11.396;2022-08-21T02:39:42;95672.66;;;15.54;100.00
48563;BME280;34981;49.104;11.396;2022-08-21T02:42:09;95671.84;;;15.53;100.00
48563;BME280;34981;49.104;11.396;2022-08-21T02:44:37;95678.06;;;15.54;100.00
48563;BME280;34981;49.104;11.396;2022-08-21T02:47:04;95677.03;;;15.50;100.00
48563;BME280;34981;49.104;11.396;2022-08-21T02:49:31;95677.47;;;15.43;100.00
48563;BME280;34981;49.104;11.396;2022-08-21T02:51:58;95678.09;;;15.40;100.00
48563;BME280;34981;49.104;11.396;2022-08-21T02:57:25;95676.19;;;15.41;100.00
48563;BME280;34981;49.104;11.396;2022-08-21T02:59:52;95679.72;;;15.41;100.00
48563;BME280;34981;49.104;11.396;2022-08-21T03:02:19;95680.81;;;15.40;100.00
48563;BME280;34981;49.104;11.396;2022-08-21T03:04:48;95674.38;;;15.36;100.00
48563;BME280;34981;49.104;11.396;2022-08-21T03:07:15;95674.69;;;15.35;100.00
48563;BME280;34981;49.104;11.396;2022-08-21T03:09:42;95678.84;;;15.32;100.00
48563;BME280;34981;49.104;11.396;2022-08-21T03:12:22;95679.63;;;15.33;100.00
48563;BME280;34981;49.104;11.396;2022-08-21T03:14:49;95670.50;;;15.29;100.00
48563;BME280;34981;49.104;11.396;2022-08-21T03:17:16;95672.72;;;15.27;100.00
48563;BME280;34981;49.104;11.396;2022-08-21T03:19:55;95684.47;;;15.22;100.00
48563;BME280;34981;49.104;11.396;2022-08-21T03:22:23;95675.97;;;15.15;100.00
48563;BME280;34981;49.104;11.396;2022-08-21T03:24:52;95667.34;;;15.13;100.00
48563;BME280;34981;49.104;11.396;2022-08-21T03:27:20;95672.66;;;15.18;100.00
48563;BME280;34981;49.104;11.396;2022-08-21T03:29:48;95677.06;;;15.14;100.00
48563;BME280;34981;49.104;11.396;2022-08-21T03:32:15;95671.78;;;15.09;100.00
48563;BME280;34981;49.104;11.396;2022-08-21T03:34:42;95682.59;;;15.09;100.00
48563;BME280;34981;49.104;11.396;2022-08-21T03:37:10;95675.56;;;15.08;100.00
48563;BME280;34981;49.104;11.396;2022-08-21T03:39:37;95673.88;;;15.12;100.00
48563;BME280;34981;49.104;11.396;2022-08-21T03:42:04;95680.41;;;15.11;100.00
48563;BME280;34981;49.104;11.396;2022-08-21T03:44:33;95680.19;;;15.07;100.00
48563;BME280;34981;49.104;11.396;2022-08-21T03:47:01;95684.81;;;15.07;100.00
48563;BME280;34981;49.104;11.396;2022-08-21T03:49:29;95680.19;;;15.07;100.00
48563;BME280;34981;49.104;11.396;2022-08-21T03:51:56;95689.63;;;15.10;100.00
48563;BME280;34981;49.104;11.396;2022-08-21T03:54:25;95692.84;;;15.12;100.00
48563;BME280;34981;49.104;11.396;2022-08-21T03:56:54;95691.03;;;15.07;100.00
48563;BME280;34981;49.104;11.396;2022-08-21T03:59:22;95701.03;;;15.07;100.00
48563;BME280;34981;49.104;11.396;2022-08-21T04:01:51;95700.88;;;15.03;100.00
48563;BME280;34981;49.104;11.396;2022-08-21T04:04:18;95699.25;;;15.02;100.00
48563;BME280;34981;49.104;11.396;2022-08-21T04:06:45;95697.84;;;15.05;100.00
48563;BME280;34981;49.104;11.396;2022-08-21T04:09:13;95696.84;;;15.01;100.00
48563;BME280;34981;49.104;11.396;2022-08-21T04:11:40;95697.66;;;15.01;100.00
48563;BME280;34981;49.104;11.396;2022-08-21T04:14:07;95700.66;;;15.00;100.00
48563;BME280;34981;49.104;11.396;2022-08-21T04:16:34;95699.84;;;14.99;100.00
48563;BME280;34981;49.104;11.396;2022-08-21T04:19:01;95698.38;;;14.93;100.00
48563;BME280;34981;49.104;11.396;2022-08-21T04:21:29;95694.47;;;14.86;100.00
48563;BME280;34981;49.104;11.396;2022-08-21T04:23:56;95703.97;;;14.83;100.00
48563;BME280;34981;49.104;11.396;2022-08-21T04:26:23;95711.00;;;14.84;100.00
48563;BME280;34981;49.104;11.396;2022-08-21T04:28:50;95709.09;;;14.85;100.00
48563;BME280;34981;49.104;11.396;2022-08-21T04:31:18;95711.22;;;14.88;100.00
48563;BME280;34981;49.104;11.396;2022-08-21T04:33:45;95709.47;;;14.92;100.00
48563;BME280;34981;49.104;11.396;2022-08-21T04:36:12;95719.72;;;14.95;100.00
48563;BME280;34981;49.104;11.396;2022-08-21T04:38:39;95718.00;;;14.99;100.00
48563;BME280;34981;49.104;11.396;2022-08-21T04:41:10;95717.91;;;15.04;100.00
48563;BME280;34981;49.104;11.396;2022-08-21T04:43:38;95722.69;;;15.07;100.00
48563;BME280;34981;49.104;11.396;2022-08-21T04:46:05;95728.03;;;15.12;100.00
48563;BME280;34981;49.104;11.396;2022-08-21T04:48:39;95730.22;;;15.10;100.00
48563;BME280;34981;49.104;11.396;2022-08-21T04:53:38;95740.94;;;15.15;100.00
48563;BME280;34981;49.104;11.396;2022-08-21T04:56:08;95731.72;;;15.16;100.00
48563;BME280;34981;49.104;11.396;2022-08-21T04:58:36;95737.13;;;15.16;100.00
48563;BME280;34981;49.104;11.396;2022-08-21T05:01:04;95736.53;;;15.19;100.00
48563;BME280;34981;49.104;11.396;2022-08-21T05:03:33;95740.72;;;15.25;100.00
48563;BME280;34981;49.104;11.396;2022-08-21T05:06:06;95736.81;;;15.31;100.00
48563;BME280;34981;49.104;11.396;2022-08-21T05:08:33;95746.25;;;15.34;100.00
48563;BME280;34981;49.104;11.396;2022-08-21T05:11:01;95744.81;;;15.36;100.00
48563;BME280;34981;49.104;11.396;2022-08-21T05:13:29;95749.63;;;15.39;100.00
48563;BME280;34981;49.104;11.396;2022-08-21T05:15:56;95746.91;;;15.39;100.00
48563;BME280;34981;49.104;11.396;2022-08-21T05:18:24;95751.72;;;15.42;100.00
48563;BME280;34981;49.104;11.396;2022-08-21T05:20:51;95745.69;;;15.45;100.00
48563;BME280;34981;49.104;11.396;2022-08-21T05:23:18;95754.31;;;15.47;100.00
48563;BME280;34981;49.104;11.396;2022-08-21T05:25:45;95746.69;;;15.49;100.00
48563;BME280;34981;49.104;11.396;2022-08-21T05:28:14;95746.69;;;15.49;100.00
48563;BME280;34981;49.104;11.396;2022-08-21T05:30:41;95752.09;;;15.49;100.00
48563;BME280;34981;49.104;11.396;2022-08-21T05:33:08;95762.13;;;15.49;100.00
48563;BME280;34981;49.104;11.396;2022-08-21T05:35:35;95757.50;;;15.49;100.00
48563;BME280;34981;49.104;11.396;2022-08-21T05:38:03;95764.53;;;15.50;100.00
48563;BME280;34981;49.104;11.396;2022-08-21T05:40:30;95765.03;;;15.52;100.00
48563;BME280;34981;49.104;11.396;2022-08-21T05:42:57;95765.56;;;15.54;100.00
48563;BME280;34981;49.104;11.396;2022-08-21T05:45:27;95764.94;;;15.57;100.00
48563;BME280;34981;49.104;11.396;2022-08-21T05:48:11;95760.34;;;15.58;100.00
48563;BME280;34981;49.104;11.396;2022-08-21T05:50:38;95765.16;;;15.61;100.00
48563;BME280;34981;49.104;11.396;2022-08-21T05:53:05;95768.38;;;15.63;100.00
48563;BME280;34981;49.104;11.396;2022-08-21T05:55:34;95769.94;;;15.64;100.00
48563;BME280;34981;49.104;11.396;2022-08-21T05:58:02;95763.13;;;15.67;100.00
48563;BME280;34981;49.104;11.396;2022-08-21T06:00:29;95763.13;;;15.67;100.00
48563;BME280;34981;49.104;11.396;2022-08-21T06:02:56;95766.34;;;15.69;100.00
48563;BME280;34981;49.104;11.396;2022-08-21T06:05:24;95766.50;;;15.72;100.00
48563;BME280;34981;49.104;11.396;2022-08-21T06:08:03;95768.91;;;15.74;100.00
48563;BME280;34981;49.104;11.396;2022-08-21T06:10:31;95769.94;;;15.78;100.00
48563;BME280;34981;49.104;11.396;2022-08-21T06:12:58;95766.28;;;15.82;100.00
48563;BME280;34981;49.104;11.396;2022-08-21T06:15:25;95770.31;;;15.85;100.00
48563;BME280;34981;49.104;11.396;2022-08-21T06:17:53;95769.97;;;15.86;100.00
48563;BME280;34981;49.104;11.396;2022-08-21T06:20:20;95783.44;;;15.91;100.00
48563;BME280;34981;49.104;11.396;2022-08-21T06:22:48;95782.31;;;15.92;100.00
48563;BME280;34981;49.104;11.396;2022-08-21T06:25:15;95790.13;;;15.94;100.00
48563;BME280;34981;49.104;11.396;2022-08-21T06:27:42;95790.91;;;15.94;100.00
48563;BME280;34981;49.104;11.396;2022-08-21T06:30:09;95784.22;;;15.92;100.00
48563;BME280;34981;49.104;11.396;2022-08-21T06:32:37;95783.09;;;15.93;100.00
48563;BME280;34981;49.104;11.396;2022-08-21T06:35:05;95781.69;;;15.95;100.00
48563;BME280;34981;49.104;11.396;2022-08-21T06:37:33;95779.47;;;15.98;100.00
48563;BME280;34981;49.104;11.396;2022-08-21T06:40:00;95775.31;;;16.00;100.00
48563;BME280;34981;49.104;11.396;2022-08-21T06:42:29;95781.75;;;16.04;100.00
48563;BME280;34981;49.104;11.396;2022-08-21T06:44:57;95772.22;;;16.07;100.00
48563;BME280;34981;49.104;11.396;2022-08-21T06:47:24;95777.31;;;16.08;100.00
48563;BME280;34981;49.104;11.396;2022-08-21T06:49:51;95771.78;;;16.13;100.00
48563;BME280;34981;49.104;11.396;2022-08-21T06:52:19;95764.13;;;16.15;100.00
48563;BME280;34981;49.104;11.396;2022-08-21T06:54:46;95770.03;;;16.17;100.00
48563;BME280;34981;49.104;11.396;2022-08-21T06:57:13;95769.59;;;16.24;100.00
48563;BME280;34981;49.104;11.396;2022-08-21T06:59:40;95776.03;;;16.28;100.00
48563;BME280;34981;49.104;11.396;2022-08-21T07:02:07;95775.69;;;16.29;100.00
48563;BME280;34981;49.104;11.396;2022-08-21T07:04:34;95779.69;;;16.32;100.00
48563;BME280;34981;49.104;11.396;2022-08-21T07:07:01;95781.47;;;16.36;100.00
48563;BME280;34981;49.104;11.396;2022-08-21T07:09:28;95781.97;;;16.39;100.00
48563;BME280;34981;49.104;11.396;2022-08-21T07:11:55;95789.19;;;16.43;100.00
48563;BME280;34981;49.104;11.396;2022-08-21T07:14:23;95790.31;;;16.42;100.00
48563;BME280;34981;49.104;11.396;2022-08-21T07:16:50;95786.78;;;16.42;100.00
48563;BME280;34981;49.104;11.396;2022-08-21T07:19:18;95786.78;;;16.42;100.00
48563;BME280;34981;49.104;11.396;2022-08-21T07:21:46;95787.91;;;16.41;100.00
48563;BME280;34981;49.104;11.396;2022-08-21T07:24:13;95786.91;;;16.36;100.00
48563;BME280;34981;49.104;11.396;2022-08-21T07:26:40;95793.94;;;16.38;100.00
48563;BME280;34981;49.104;11.396;2022-08-21T07:29:07;95794.94;;;16.42;100.00
48563;BME280;34981;49.104;11.396;2022-08-21T07:31:34;95793.03;;;16.42;100.00
48563;BME280;34981;49.104;11.396;2022-08-21T07:34:02;95794.78;;;16.47;100.00
48563;BME280;34981;49.104;11.396;2022-08-21T07:36:29;95796.91;;;16.50;100.00
48563;BME280;34981;49.104;11.396;2022-08-21T07:38:59;95795.28;;;16.49;100.00
48563;BME280;34981;49.104;11.396;2022-08-21T07:41:27;95796.91;;;16.50;100.00
48563;BME280;34981;49.104;11.396;2022-08-21T07:43:55;95801.38;;;16.54;100.00
48563;BME280;34981;49.104;11.396;2022-08-21T07:46:24;95801.06;;;16.56;100.00
48563;BME280;34981;49.104;11.396;2022-08-21T07:48:51;95795.53;;;16.61;100.00
48563;BME280;34981;49.104;11.396;2022-08-21T07:51:20;95801.47;;;16.63;100.00
48563;BME280;34981;49.104;11.396;2022-08-21T07:53:49;95794.78;;;16.69;100.00
48563;BME280;34981;49.104;11.396;2022-08-21T07:56:16;95794.34;;;16.76;100.00
48563;BME280;34981;49.104;11.396;2022-08-21T07:58:43;95791.66;;;16.84;100.00
48563;BME280;34981;49.104;11.396;2022-08-21T08:01:11;95796.94;;;16.89;100.00
48563;BME280;34981;49.104;11.396;2022-08-21T08:03:38;95792.97;;;16.95;100.00
48563;BME280;34981;49.104;11.396;2022-08-21T08:06:06;95788.84;;;16.98;100.00
48563;BME280;34981;49.104;11.396;2022-08-21T08:08:35;95794.94;;;17.03;100.00
48563;BME280;34981;49.104;11.396;2022-08-21T08:11:02;95788.88;;;17.06;100.00
48563;BME280;34981;49.104;11.396;2022-08-21T08:13:29;95791.75;;;17.10;100.00
48563;BME280;34981;49.104;11.396;2022-08-21T08:15:56;95788.41;;;17.13;100.00
48563;BME280;34981;49.104;11.396;2022-08-21T08:18:23;95801.03;;;17.18;100.00
48563;BME280;34981;49.104;11.396;2022-08-21T08:20:50;95783.50;;;17.24;100.00
48563;BME280;34981;49.104;11.396;2022-08-21T08:23:17;95783.16;;;17.25;100.00
48563;BME280;34981;49.104;11.396;2022-08-21T08:25:45;95787.69;;;17.30;100.00
48563;BME280;34981;49.104;11.396;2022-08-21T08:28:12;95786.41;;;17.36;100.00
48563;BME280;34981;49.104;11.396;2022-08-21T08:30:46;95781.94;;;17.40;100.00
48563;BME280;34981;49.104;11.396;2022-08-21T08:33:13;95792.66;;;17.53;100.00
48563;BME280;34981;49.104;11.396;2022-08-21T08:35:41;95792.22;;;17.60;100.00
48563;BME280;34981;49.104;11.396;2022-08-21T08:38:09;95791.44;;;17.68;100.00
48563;BME280;34981;49.104;11.396;2022-08-21T08:40:48;95792.25;;;17.77;100.00
48563;BME280;34981;49.104;11.396;2022-08-21T08:43:18;95790.97;;;17.92;100.00
48563;BME280;34981;49.104;11.396;2022-08-21T08:45:46;95787.75;;;17.99;100.00
48563;BME280;34981;49.104;11.396;2022-08-21T08:51:00;95784.72;;;18.00;100.00
48563;BME280;34981;49.104;11.396;2022-08-21T08:53:30;95790.00;;;18.14;100.00
48563;BME280;34981;49.104;11.396;2022-08-21T08:55:59;95790.31;;;18.21;100.00
48563;BME280;34981;49.104;11.396;2022-08-21T08:58:37;95777.69;;;18.34;100.00
48563;BME280;34981;49.104;11.396;2022-08-21T09:01:08;95784.53;;;18.40;100.00
48563;BME280;34981;49.104;11.396;2022-08-21T09:03:39;95785.31;;;18.49;100.00
48563;BME280;34981;49.104;11.396;2022-08-21T09:16:50;95785.34;;;19.33;100.00
48563;BME280;34981;49.104;11.396;2022-08-21T09:19:22;95775.03;;;19.48;100.00
48563;BME280;34981;49.104;11.396;2022-08-21T09:21:53;95773.66;;;19.62;100.00
48563;BME280;34981;49.104;11.396;2022-08-21T09:27:02;95769.13;;;20.08;100.00
48563;BME280;34981;49.104;11.396;2022-08-21T09:29:30;95773.09;;;20.10;100.00
48563;BME280;34981;49.104;11.396;2022-08-21T09:31:58;95763.16;;;19.94;100.00
48563;BME280;34981;49.104;11.396;2022-08-21T09:34:26;95756.47;;;20.03;100.00
48563;BME280;34981;49.104;11.396;2022-08-21T09:36:54;95767.88;;;20.38;100.00
48563;BME280;34981;49.104;11.396;2022-08-21T09:39:23;95759.75;;;20.50;100.00
48563;BME280;34981;49.104;11.396;2022-08-21T09:41:58;95755.09;;;20.51;100.00
48563;BME280;34981;49.104;11.396;2022-08-21T09:44:27;95758.88;;;20.71;100.00
48563;BME280;34981;49.104;11.396;2022-08-21T09:46:55;95753.22;;;20.88;100.00
48563;BME280;34981;49.104;11.396;2022-08-21T09:49:33;95757.22;;;21.03;100.00
48563;BME280;34981;49.104;11.396;2022-08-21T09:52:01;95754.38;;;20.99;100.00
48563;BME280;34981;49.104;11.396;2022-08-21T09:54:33;95748.31;;;21.06;100.00
48563;BME280;34981;49.104;11.396;2022-08-21T09:59:53;95736.06;;;21.24;100.00
48563;BME280;34981;49.104;11.396;2022-08-21T10:02:28;95741.06;;;21.34;100.00
48563;BME280;34981;49.104;11.396;2022-08-21T10:04:59;95736.19;;;21.40;100.00
48563;BME280;34981;49.104;11.396;2022-08-21T10:07:27;95735.25;;;21.35;100.00
48563;BME280;34981;49.104;11.396;2022-08-21T10:10:14;95736.13;;;21.64;100.00
48563;BME280;34981;49.104;11.396;2022-08-21T10:13:06;95725.00;;;21.85;100.00
48563;BME280;34981;49.104;11.396;2022-08-21T10:15:44;95723.63;;;22.03;100.00
48563;BME280;34981;49.104;11.396;2022-08-21T10:18:19;95720.88;;;22.03;100.00
48563;BME280;34981;49.104;11.396;2022-08-21T10:20:50;95714.81;;;22.09;100.00
48563;BME280;34981;49.104;11.396;2022-08-21T10:26:04;95713.31;;;22.12;100.00
48563;BME280;34981;49.104;11.396;2022-08-21T10:34:16;95704.81;;;22.45;100.00
48563;BME280;34981;49.104;11.396;2022-08-21T10:36:49;95702.41;;;22.43;98.70
48563;BME280;34981;49.104;11.396;2022-08-21T10:39:28;95702.06;;;22.45;99.79
48563;BME280;34981;49.104;11.396;2022-08-21T10:47:48;95700.22;;;22.65;97.06
48563;BME280;34981;49.104;11.396;2022-08-21T10:50:22;95700.03;;;22.58;95.87
48563;BME280;34981;49.104;11.396;2022-08-21T10:55:26;95694.88;;;22.84;89.77
48563;BME280;34981;49.104;11.396;2022-08-21T10:57:59;95695.06;;;22.91;90.95
48563;BME280;34981;49.104;11.396;2022-08-21T11:00:30;95689.22;;;22.93;89.94
48563;BME280;34981;49.104;11.396;2022-08-21T11:05:29;95690.53;;;22.99;89.53
48563;BME280;34981;49.104;11.396;2022-08-21T11:08:06;95690.81;;;22.78;86.18
48563;BME280;34981;49.104;11.396;2022-08-21T11:13:12;95682.56;;;22.62;85.62
48563;BME280;34981;49.104;11.396;2022-08-21T11:15:43;95686.38;;;22.73;86.05
48563;BME280;34981;49.104;11.396;2022-08-21T11:18:17;95682.81;;;22.73;83.97
48563;BME280;34981;49.104;11.396;2022-08-21T11:26:47;95685.84;;;23.15;84.54
48563;BME280;34981;49.104;11.396;2022-08-21T11:29:20;95686.03;;;23.06;82.99
48563;BME280;34981;49.104;11.396;2022-08-21T11:34:38;95682.78;;;23.01;80.19
48563;BME280;34981;49.104;11.396;2022-08-21T11:37:11;95683.91;;;23.15;80.18
48563;BME280;34981;49.104;11.396;2022-08-21T11:42:19;95675.38;;;23.20;80.24
48563;BME280;34981;49.104;11.396;2022-08-21T11:50:18;95671.59;;;23.09;76.09
48563;BME280;34981;49.104;11.396;2022-08-21T11:53:04;95667.00;;;23.13;77.55
48563;BME280;34981;49.104;11.396;2022-08-21T11:55:55;95667.44;;;23.15;78.22
48563;BME280;34981;49.104;11.396;2022-08-21T11:58:38;95667.16;;;23.20;75.23
48563;BME280;34981;49.104;11.396;2022-08-21T12:03:40;95659.53;;;23.29;74.20
48563;BME280;34981;49.104;11.396;2022-08-21T12:06:13;95648.81;;;23.24;74.28
48563;BME280;34981;49.104;11.396;2022-08-21T12:08:57;95645.41;;;23.12;72.36
48563;BME280;34981;49.104;11.396;2022-08-21T12:11:24;95641.81;;;22.92;72.78
48563;BME280;34981;49.104;11.396;2022-08-21T12:16:31;95640.75;;;22.97;71.03
48563;BME280;34981;49.104;11.396;2022-08-21T12:19:06;95638.28;;;23.07;71.54
48563;BME280;34981;49.104;11.396;2022-08-21T12:21:34;95632.69;;;23.04;71.25
48563;BME280;34981;49.104;11.396;2022-08-21T12:29:29;95631.19;;;23.06;68.76
48563;BME280;34981;49.104;11.396;2022-08-21T12:32:03;95636.56;;;23.03;68.49
48563;BME280;34981;49.104;11.396;2022-08-21T12:34:36;95628.16;;;23.11;68.19
48563;BME280;34981;49.104;11.396;2022-08-21T12:37:07;95625.13;;;23.16;68.69
48563;BME280;34981;49.104;11.396;2022-08-21T12:39:42;95623.63;;;23.19;67.65
48563;BME280;34981;49.104;11.396;2022-08-21T12:42:19;95621.19;;;23.33;68.12
48563;BME280;34981;49.104;11.396;2022-08-21T12:47:29;95623.75;;;23.42;66.33
48563;BME280;34981;49.104;11.396;2022-08-21T12:50:00;95617.81;;;23.40;66.60
48563;BME280;34981;49.104;11.396;2022-08-21T12:52:30;95618.75;;;23.28;66.61
48563;BME280;34981;49.104;11.396;2022-08-21T12:55:05;95613.91;;;23.41;67.16
48563;BME280;34981;49.104;11.396;2022-08-21T12:57:35;95606.94;;;23.43;65.56
48563;BME280;34981;49.104;11.396;2022-08-21T13:00:04;95605.19;;;23.35;65.16
48563;BME280;34981;49.104;11.396;2022-08-21T13:02:37;95605.22;;;23.19;61.11
48563;BME280;34981;49.104;11.396;2022-08-21T13:05:11;95610.28;;;23.17;63.83
48563;BME280;34981;49.104;11.396;2022-08-21T13:07:43;95607.88;;;23.16;62.23
48563;BME280;34981;49.104;11.396;2022-08-21T13:10:22;95611.25;;;23.09;61.57
48563;BME280;34981;49.104;11.396;2022-08-21T13:12:52;95610.56;;;23.12;62.04
48563;BME280;34981;49.104;11.396;2022-08-21T13:15:25;95609.63;;;23.24;63.13
48563;BME280;34981;49.104;11.396;2022-08-21T13:17:59;95600.75;;;23.11;62.02
48563;BME280;34981;49.104;11.396;2022-08-21T13:20:30;95598.66;;;23.24;61.47
48563;BME280;34981;49.104;11.396;2022-08-21T13:22:57;95607.97;;;23.19;61.10
48563;BME280;34981;49.104;11.396;2022-08-21T13:25:26;95599.78;;;23.04;59.48
48563;BME280;34981;49.104;11.396;2022-08-21T13:28:04;95603.53;;;22.96;58.46
48563;BME280;34981;49.104;11.396;2022-08-21T13:30:32;95596.00;;;23.08;59.98
48563;BME280;34981;49.104;11.396;2022-08-21T13:33:00;95596.53;;;22.98;58.68
48563;BME280;34981;49.104;11.396;2022-08-21T13:35:30;95597.84;;;23.04;58.30
48563;BME280;34981;49.104;11.396;2022-08-21T13:38:03;95593.59;;;23.07;57.62
48563;BME280;34981;49.104;11.396;2022-08-21T13:40:45;95594.13;;;23.12;57.87
48563;BME280;34981;49.104;11.396;2022-08-21T13:43:15;95589.47;;;23.16;57.22
48563;BME280;34981;49.104;11.396;2022-08-21T13:45:48;95596.81;;;23.28;57.60
48563;BME280;34981;49.104;11.396;2022-08-21T13:48:15;95592.53;;;23.30;56.49
48563;BME280;34981;49.104;11.396;2022-08-21T13:50:42;95589.72;;;23.08;54.15
48563;BME280;34981;49.104;11.396;2022-08-21T13:53:27;95589.63;;;23.04;54.34
48563;BME280;34981;49.104;11.396;2022-08-21T13:55:55;95586.53;;;23.06;54.47
48563;BME280;34981;49.104;11.396;2022-08-21T13:58:41;95587.19;;;23.18;55.03
48563;BME280;34981;49.104;11.396;2022-08-21T14:03:49;95586.53;;;23.06;53.25
48563;BME280;34981;49.104;11.396;2022-08-21T14:06:18;95585.88;;;23.12;54.31
48563;BME280;34981;49.104;11.396;2022-08-21T14:08:53;95584.38;;;23.15;54.86
48563;BME280;34981;49.104;11.396;2022-08-21T14:11:21;95585.19;;;23.15;55.48
48563;BME280;34981;49.104;11.396;2022-08-21T14:14:02;95588.94;;;23.26;55.50